Time;durP1;ratioP1;P1;durP2;ratioP2;P2;SDS_P1;SDS_P2;PMS_P1;PMS_P2;Temp;Humidity;BMP_temperature;BMP_pressure;BME280_temperature;BME280_humidity;BME280_pressure;Samples;Min_cycle;Max_cycle;Signal;HPM_P1;HPM_P2
2022/12/16 00:02:34;;;;;;;1.70;1.60;;;;;;;22.81;34.79;97644.89;1838961;77;28343;-54
2022/12/16 00:05:22;;;;;;;1.55;1.45;;;;;;;22.81;34.81;97645.71;1821610;77;28350;-55
2022/12/16 00:08:11;;;;;;;1.47;1.47;;;;;;;22.81;34.76;97655.84;1826198;77;28291;-53
2022/12/16 00:11:01;;;;;;;1.70;1.60;;;;;;;22.82;34.76;97652.84;1807598;78;28229;-54
2022/12/16 00:13:50;;;;;;;1.70;1.60;;;;;;;22.84;34.79;97657.48;1832788;77;28200;-52
2022/12/16 00:16:39;;;;;;;3.27;1.62;;;;;;;22.84;34.76;97656.11;1821072;77;28287;-53
2022/12/16 00:19:27;;;;;;;1.87;1.77;;;;;;;22.84;34.76;97660.22;1823978;77;28202;-55
2022/12/16 00:22:16;;;;;;;2.60;1.60;;;;;;;22.84;34.76;97664.32;1825443;77;28292;-55
2022/12/16 00:25:05;;;;;;;1.57;1.47;;;;;;;22.84;34.76;97665.69;1825474;77;28332;-52
2022/12/16 00:27:54;;;;;;;3.70;1.55;;;;;;;22.86;34.77;97664.03;1865102;75;28217;-54
2022/12/16 00:30:44;;;;;;;1.52;1.42;;;;;;;22.84;34.75;97663.50;1884559;75;28048;-55
2022/12/16 00:33:32;;;;;;;1.75;1.60;;;;;;;22.89;34.75;97670.33;1883139;75;28132;-55
2022/12/16 00:36:21;;;;;;;1.30;1.30;;;;;;;22.88;34.74;97670.87;1875563;75;28024;-52
2022/12/16 00:39:10;;;;;;;1.60;1.50;;;;;;;22.89;34.74;97672.52;1875358;75;28021;-52
2022/12/16 00:41:59;;;;;;;1.60;1.50;;;;;;;22.90;34.71;97677.42;1884758;75;28202;-54
2022/12/16 00:44:47;;;;;;;1.37;1.37;;;;;;;22.91;34.70;97676.34;1866392;75;28003;-53
2022/12/16 00:47:35;;;;;;;1.77;1.40;;;;;;;22.92;34.67;97672.51;1869690;75;28087;-55
2022/12/16 00:50:24;;;;;;;1.40;1.40;;;;;;;22.92;34.70;97681.52;1876898;75;28258;-53
2022/12/16 00:53:12;;;;;;;1.50;1.50;;;;;;;22.94;34.66;97677.95;1875801;75;28091;-54
2022/12/16 00:56:07;;;;;;;1.55;1.45;;;;;;;22.98;34.64;97686.44;1880826;75;28008;-54
2022/12/16 00:58:56;;;;;;;1.35;1.35;;;;;;;22.88;34.62;97683.19;1881589;75;28106;-54
2022/12/16 01:01:44;;;;;;;1.90;1.50;;;;;;;22.94;34.58;97694.38;1874150;75;28098;-55
2022/12/16 01:04:32;;;;;;;1.45;1.40;;;;;;;22.96;34.61;97700.96;1885257;74;28252;-55
2022/12/16 01:07:21;;;;;;;1.75;1.45;;;;;;;22.98;34.57;97705.06;1891395;74;28682;-55
2022/12/16 01:10:11;;;;;;;1.95;1.50;;;;;;;22.99;34.59;97712.70;1878062;74;28207;-51
2022/12/16 01:12:59;;;;;;;1.50;1.30;;;;;;;23.01;34.55;97717.38;1890576;74;28025;-49
2022/12/16 01:15:48;;;;;;;1.20;1.20;;;;;;;23.00;34.62;97723.94;1893931;74;31147;-55
2022/12/16 01:18:37;;;;;;;1.73;1.30;;;;;;;23.02;34.57;97725.30;1893887;74;28087;-52
2022/12/16 01:21:25;;;;;;;1.30;1.30;;;;;;;23.00;34.52;97730.24;1894573;74;28014;-52
2022/12/16 01:24:14;;;;;;;1.10;1.10;;;;;;;23.01;34.58;97738.71;1880795;74;28138;-55
2022/12/16 01:27:02;;;;;;;1.80;1.40;;;;;;;23.02;34.57;97744.47;1885449;74;28192;-54
2022/12/16 01:29:51;;;;;;;1.60;1.30;;;;;;;23.05;34.55;97749.40;1880416;74;28133;-52
2022/12/16 01:32:40;;;;;;;1.35;1.12;;;;;;;23.06;34.57;97756.50;1880675;74;28188;-53
2022/12/16 01:35:28;;;;;;;1.35;1.30;;;;;;;23.08;34.48;97759.77;1884524;74;28070;-55
2022/12/16 01:38:16;;;;;;;1.27;1.27;;;;;;;23.11;34.52;97763.33;1892217;74;28024;-54
2022/12/16 01:41:06;;;;;;;1.22;1.20;;;;;;;23.08;34.48;97769.36;1888556;74;28138;-55
2022/12/16 01:44:14;;;;;;;1.20;1.20;;;;;;;23.09;34.55;97771.55;1895124;74;30222;-49
2022/12/16 01:47:05;;;;;;;1.30;1.30;;;;;;;23.11;34.50;97775.66;1900640;74;28020;-53
2022/12/16 01:50:05;;;;;;;1.30;1.30;;;;;;;23.10;34.57;97786.36;1893227;74;28210;-55
2022/12/16 01:52:57;;;;;;;1.15;1.15;;;;;;;23.11;34.55;97786.61;1902276;74;28008;-53
2022/12/16 01:55:49;;;;;;;1.22;1.12;;;;;;;23.16;34.53;97801.66;1905330;74;31964;-53
2022/12/16 01:58:41;;;;;;;1.27;1.27;;;;;;;23.17;34.52;97798.38;1895775;74;28071;-52
2022/12/16 02:01:30;;;;;;;1.15;1.15;;;;;;;23.17;34.48;97804.69;1890756;74;28165;-55
2022/12/16 02:04:18;;;;;;;1.30;1.20;;;;;;;23.19;34.48;97807.97;1886402;74;28116;-56
2022/12/16 02:07:06;;;;;;;1.40;1.20;;;;;;;23.24;34.45;97809.86;1879472;75;28118;-55
2022/12/16 02:09:55;;;;;;;1.10;1.00;;;;;;;23.25;34.46;97812.31;1884581;75;28093;-53
2022/12/16 02:12:47;;;;;;;1.20;1.20;;;;;;;23.28;34.42;97819.98;1899664;75;28091;-55
2022/12/16 02:15:41;;;;;;;1.10;1.10;;;;;;;23.30;34.39;97822.43;1868985;75;28251;-55
2022/12/16 02:18:52;;;;;;;1.15;1.10;;;;;;;23.31;34.38;97828.20;1890664;75;31088;-54
2022/12/16 02:21:59;;;;;;;1.00;1.00;;;;;;;23.33;34.33;97830.93;1888111;75;28164;-56
2022/12/16 02:25:06;;;;;;;1.70;1.10;;;;;;;23.34;34.40;97830.35;1878521;75;28013;-56
2022/12/16 02:28:01;;;;;;;1.30;1.10;;;;;;;23.33;34.39;97834.21;1874218;75;28021;-54
2022/12/16 02:31:11;;;;;;;1.05;1.05;;;;;;;23.33;34.40;97833.67;1860868;75;28169;-56
2022/12/16 02:34:11;;;;;;;1.10;1.00;;;;;;;23.36;34.38;97837.23;1872096;75;28171;-55
2022/12/16 02:37:21;;;;;;;1.30;1.10;;;;;;;23.38;34.40;97838.88;1873731;75;28029;-57
2022/12/16 02:40:13;;;;;;;1.02;1.02;;;;;;;23.42;34.39;97845.44;1884437;75;28163;-54
2022/12/16 02:43:04;;;;;;;1.35;1.20;;;;;;;23.41;34.41;97845.19;1871145;75;28196;-56
2022/12/16 02:45:52;;;;;;;1.00;1.00;;;;;;;23.43;34.40;97850.66;1873384;75;28611;-52
2022/12/16 02:48:41;;;;;;;1.03;1.03;;;;;;;23.43;34.39;97845.72;1889457;75;28138;-52
2022/12/16 02:51:29;;;;;;;1.22;1.12;;;;;;;23.50;34.40;97853.09;1859074;75;28193;-52
2022/12/16 02:54:18;;;;;;;1.00;1.00;;;;;;;23.46;34.36;97843.77;1876033;75;28420;-54
2022/12/16 02:57:09;;;;;;;1.00;1.00;;;;;;;23.56;34.38;97853.33;1868730;75;28273;-53
2022/12/16 03:00:16;;;;;;;0.90;0.90;;;;;;;23.58;34.36;97853.87;1864717;75;28148;-56
2022/12/16 03:03:04;;;;;;;1.00;1.00;;;;;;;23.60;34.41;97858.52;1873723;75;28070;-56
2022/12/16 03:05:55;;;;;;;1.10;1.10;;;;;;;23.63;34.39;97858.79;1885411;74;28225;-54
2022/12/16 03:08:46;;;;;;;1.10;1.10;;;;;;;23.67;34.39;97859.03;1900768;74;28513;-54
2022/12/16 03:11:36;;;;;;;0.82;0.82;;;;;;;23.69;34.37;97862.31;1901444;74;28009;-56
2022/12/16 03:14:28;;;;;;;0.85;0.85;;;;;;;23.71;34.35;97861.50;1896829;74;28073;-54
2022/12/16 03:17:18;;;;;;;1.00;1.00;;;;;;;23.73;34.37;97868.89;1891760;74;28056;-56
2022/12/16 03:20:16;;;;;;;1.10;1.00;;;;;;;23.75;34.33;97864.77;1895362;74;28132;-56
2022/12/16 03:23:07;;;;;;;0.88;0.88;;;;;;;23.76;34.33;97869.68;1904755;74;28296;-55
2022/12/16 03:25:59;;;;;;;0.90;0.90;;;;;;;23.79;34.30;97867.76;1907967;74;28103;-55
2022/12/16 03:28:50;;;;;;;0.80;0.80;;;;;;;23.81;34.32;97874.60;1904293;74;27981;-54
2022/12/16 03:31:50;;;;;;;1.00;1.00;;;;;;;23.81;34.30;97871.03;1897617;74;28126;-56
2022/12/16 03:34:44;;;;;;;1.00;1.00;;;;;;;23.83;34.29;97872.94;1908014;74;28078;-53
2022/12/16 03:37:36;;;;;;;1.00;1.00;;;;;;;23.83;34.29;97866.09;1894813;74;28098;-55
2022/12/16 03:40:28;;;;;;;0.93;0.93;;;;;;;23.85;34.27;97869.39;1886875;74;28099;-53
2022/12/16 03:43:18;;;;;;;0.93;0.93;;;;;;;23.87;34.24;97868.02;1902735;74;27996;-55
2022/12/16 03:46:09;;;;;;;0.90;0.90;;;;;;;23.90;34.22;97874.83;1904208;74;28035;-56
2022/12/16 03:48:57;;;;;;;0.80;0.80;;;;;;;23.92;34.22;97878.13;1885602;74;28117;-55
2022/12/16 03:51:46;;;;;;;0.90;0.90;;;;;;;23.92;34.20;97884.98;1893610;74;28109;-53
2022/12/16 03:54:34;;;;;;;0.80;0.80;;;;;;;23.93;34.19;97882.50;1885063;74;28151;-55
2022/12/16 03:57:22;;;;;;;0.80;0.80;;;;;;;23.98;34.13;97886.59;1896733;74;28010;-55
2022/12/16 04:00:12;;;;;;;0.70;0.70;;;;;;;23.97;34.16;97890.42;1906091;74;32997;-56
2022/12/16 04:03:00;;;;;;;0.70;0.70;;;;;;;24.00;34.06;97891.23;1897799;74;28066;-52
2022/12/16 04:05:48;;;;;;;0.65;0.65;;;;;;;24.00;34.12;97885.75;1890906;74;28133;-55
2022/12/16 04:08:37;;;;;;;0.93;0.93;;;;;;;24.01;34.12;97891.52;1898393;74;27989;-52
2022/12/16 04:30:18;;;;;;;0.93;0.90;;;;;;;24.03;34.19;97897.55;1892470;74;28269;-54
